Longzhou, China
Current Conditions -  °F | °C
As of 8:00 AM on Monday 22 Dec 2014 (Local Time) from ZGNN Reporting Station
Haze Haze  
Wind Chill: 43°   Ceiling: Unl
Heat Index: 43°   Visibility: 2.5mi
Dew Point: 39°   Wind: 2mph
Humidity: 87%   Direction: 40°NE
Pressure: 30.33"   Gusts: NA
Location:  22.37°N, 106.75°E
Report Text: ZGNN 220000Z 04001MPS 4000 BR NSC 06/04 Q1027 NOSIG
Loading
Personal Weather Stations






























Interactive Weather Map New forecast layout! Learn more

10-Day Weather Forecast

Advertisements
Track Severe Weather on mobile